Time;durP1;ratioP1;P1;durP2;ratioP2;P2;SDS_P1;SDS_P2;PMS_P1;PMS_P2;Temp;Humidity;BMP_temperature;BMP_pressure;BME280_temperature;BME280_humidity;BME280_pressure;Samples;Min_cycle;Max_cycle;Signal;HPM_P1;HPM_P2
2023/09/01 00:00:46;;;;;;;0.80;0.80;;;12.80;99.90;;;;;;5094586;27;20043;-87
2023/09/01 00:03:13;;;;;;;0.70;0.70;;;12.80;99.90;;;;;;5096358;27;20081;-87
2023/09/01 00:05:39;;;;;;;0.70;0.70;;;12.70;99.90;;;;;;5095883;27;20870;-87
2023/09/01 00:08:05;;;;;;;0.70;0.70;;;12.80;99.90;;;;;;5108866;27;20087;-86
2023/09/01 00:10:35;;;;;;;0.70;0.70;;;12.80;99.90;;;;;;5107979;27;20059;-87
2023/09/01 00:13:02;;;;;;;0.70;0.70;;;12.60;99.90;;;;;;5108241;27;20050;-87
2023/09/01 00:15:28;;;;;;;0.70;0.70;;;12.50;99.90;;;;;;5096139;27;20561;-88
2023/09/01 00:17:53;;;;;;;0.80;0.80;;;12.50;99.90;;;;;;5113252;27;20047;-87
2023/09/01 00:20:19;;;;;;;0.80;0.80;;;12.60;99.90;;;;;;5103040;27;20054;-87
2023/09/01 00:22:45;;;;;;;0.80;0.80;;;12.70;99.90;;;;;;5102108;27;20049;-87
2023/09/01 00:25:11;;;;;;;0.80;0.80;;;12.60;99.90;;;;;;5107113;27;20062;-87
2023/09/01 00:27:37;;;;;;;0.80;0.80;;;12.50;99.90;;;;;;5123484;27;20126;-87
2023/09/01 00:30:02;;;;;;;0.80;0.80;;;12.50;99.90;;;;;;5106153;27;20062;-88
2023/09/01 00:32:28;;;;;;;0.80;0.80;;;12.60;99.90;;;;;;5124605;27;20072;-87
2023/09/01 00:34:57;;;;;;;0.80;0.80;;;12.50;99.90;;;;;;5107621;27;20045;-87
2023/09/01 00:37:24;;;;;;;0.80;0.80;;;12.60;99.90;;;;;;5123585;27;20506;-88
2023/09/01 00:39:50;;;;;;;0.80;0.80;;;12.70;99.90;;;;;;5107928;27;20049;-87
2023/09/01 00:42:15;;;;;;;0.80;0.80;;;12.70;99.90;;;;;;5105833;27;20046;-89
2023/09/01 00:44:41;;;;;;;0.77;0.77;;;12.60;99.90;;;;;;5109454;27;20133;-87
2023/09/01 00:47:07;;;;;;;0.80;0.80;;;12.70;99.90;;;;;;5120522;27;20039;-87
2023/09/01 00:49:36;;;;;;;0.70;0.70;;;12.50;99.90;;;;;;5106847;27;20400;-87
2023/09/01 00:52:02;;;;;;;0.80;0.80;;;12.60;99.90;;;;;;5123915;27;20047;-88
2023/09/01 00:54:28;;;;;;;0.70;0.70;;;12.70;99.90;;;;;;5142680;27;20624;-87
2023/09/01 00:56:54;;;;;;;0.80;0.80;;;12.50;99.90;;;;;;5110628;27;20043;-91
2023/09/01 00:59:21;;;;;;;0.70;0.70;;;12.70;99.90;;;;;;5116040;27;20038;-92
2023/09/01 01:01:48;;;;;;;0.80;0.80;;;12.60;99.90;;;;;;5106084;27;20043;-88
2023/09/01 01:04:14;;;;;;;0.70;0.70;;;12.60;99.90;;;;;;5123999;27;20563;-89
2023/09/01 01:06:58;;;;;;;0.70;0.70;;;12.80;99.90;;;;;;5109762;27;20049;-86
2023/09/01 01:09:51;;;;;;;0.73;0.73;;;12.50;99.90;;;;;;5107627;27;20579;-88
2023/09/01 01:12:31;;;;;;;0.80;0.80;;;12.50;99.90;;;;;;5105294;27;20055;-87
2023/09/01 01:14:59;;;;;;;0.80;0.80;;;12.40;99.90;;;;;;5106143;27;20047;-86
2023/09/01 01:17:26;;;;;;;0.70;0.70;;;12.50;99.90;;;;;;5121949;27;20054;-87
2023/09/01 01:20:02;;;;;;;0.73;0.73;;;12.40;99.90;;;;;;5120434;27;20035;-88
2023/09/01 01:22:48;;;;;;;0.80;0.80;;;12.30;99.90;;;;;;5123101;27;20054;-89
2023/09/01 01:25:14;;;;;;;0.70;0.70;;;12.50;99.90;;;;;;5103890;27;20126;-89
2023/09/01 01:27:43;;;;;;;0.80;0.80;;;12.50;99.90;;;;;;5123486;27;20554;-88
2023/09/01 01:30:13;;;;;;;0.70;0.70;;;12.50;99.90;;;;;;5133389;27;20041;-88
2023/09/01 01:32:40;;;;;;;0.80;0.80;;;12.30;99.90;;;;;;5108793;27;20578;-87
2023/09/01 01:35:25;;;;;;;0.70;0.70;;;12.40;99.90;;;;;;5126249;27;20046;-86
2023/09/01 01:38:14;;;;;;;0.73;0.73;;;12.40;99.90;;;;;;5120299;27;20387;-87
2023/09/01 01:40:42;;;;;;;0.70;0.70;;;12.30;99.90;;;;;;5122153;27;20047;-88
2023/09/01 01:43:11;;;;;;;0.70;0.70;;;12.30;99.90;;;;;;5107653;27;20077;-87
2023/09/01 01:45:41;;;;;;;0.70;0.70;;;12.20;99.90;;;;;;5106871;27;20047;-87
2023/09/01 01:48:07;;;;;;;0.70;0.70;;;12.30;99.90;;;;;;5109277;27;20519;-88
2023/09/01 01:50:33;;;;;;;0.70;0.70;;;12.40;99.90;;;;;;5102992;27;20043;-88
2023/09/01 01:52:59;;;;;;;0.70;0.70;;;12.20;99.90;;;;;;5101518;27;20138;-88
2023/09/01 01:55:25;;;;;;;0.70;0.70;;;12.10;99.90;;;;;;5127118;27;20125;-87
2023/09/01 01:57:50;;;;;;;0.70;0.70;;;12.10;99.90;;;;;;5108515;27;20131;-86
2023/09/01 02:00:16;;;;;;;0.70;0.70;;;12.30;99.90;;;;;;5124031;27;20399;-88
2023/09/01 02:02:45;;;;;;;0.70;0.70;;;12.20;99.90;;;;;;5103556;27;20078;-89
2023/09/01 02:05:11;;;;;;;0.70;0.70;;;12.20;99.90;;;;;;5107673;27;20043;-88
2023/09/01 02:07:37;;;;;;;0.70;0.70;;;12.30;99.90;;;;;;5104032;27;20277;-89
2023/09/01 02:10:06;;;;;;;0.70;0.70;;;12.20;99.90;;;;;;5112814;27;20130;-87
2023/09/01 02:12:33;;;;;;;0.70;0.70;;;12.40;99.90;;;;;;5111817;27;20043;-89
2023/09/01 02:15:00;;;;;;;0.70;0.70;;;12.30;99.90;;;;;;5103903;27;20055;-90
2023/09/01 02:17:25;;;;;;;0.70;0.70;;;12.10;99.90;;;;;;5109180;27;20050;-89
2023/09/01 02:19:51;;;;;;;0.70;0.70;;;12.20;99.90;;;;;;5108944;27;20039;-88
2023/09/01 02:22:17;;;;;;;0.70;0.70;;;11.90;99.90;;;;;;5105375;27;20054;-88
2023/09/01 02:24:43;;;;;;;0.70;0.70;;;12.20;99.90;;;;;;5098481;27;20042;-86
2023/09/01 02:27:08;;;;;;;0.70;0.70;;;12.10;99.90;;;;;;5103589;27;20066;-90
2023/09/01 02:29:34;;;;;;;0.70;0.70;;;12.30;99.90;;;;;;5106161;27;20046;-89
2023/09/01 02:32:00;;;;;;;0.80;0.80;;;12.10;99.90;;;;;;5102508;27;20034;-88
2023/09/01 02:34:26;;;;;;;0.80;0.80;;;12.30;99.90;;;;;;5104612;27;20039;-89
2023/09/01 02:36:52;;;;;;;0.70;0.70;;;12.20;99.90;;;;;;5108633;27;20043;-89
2023/09/01 02:39:18;;;;;;;0.77;0.77;;;12.10;99.90;;;;;;5105689;27;20645;-89
2023/09/01 02:41:44;;;;;;;0.70;0.70;;;12.20;99.90;;;;;;5111823;27;20067;-90
2023/09/01 02:44:10;;;;;;;0.75;0.75;;;12.00;99.90;;;;;;5125864;27;20050;-90
2023/09/01 02:46:36;;;;;;;0.73;0.73;;;12.10;99.90;;;;;;5107361;27;20042;-89
2023/09/01 02:49:03;;;;;;;0.80;0.80;;;12.20;99.90;;;;;;5105735;27;20516;-89
2023/09/01 02:51:29;;;;;;;0.70;0.70;;;12.10;99.90;;;;;;5104516;27;20099;-90
2023/09/01 02:53:55;;;;;;;0.70;0.70;;;12.30;99.90;;;;;;5108216;27;20047;-89
2023/09/01 02:56:20;;;;;;;0.73;0.73;;;12.20;99.90;;;;;;5108414;27;20042;-89
2023/09/01 02:58:46;;;;;;;0.70;0.70;;;12.20;99.90;;;;;;5105207;27;20035;-88
2023/09/01 03:01:13;;;;;;;0.80;0.80;;;12.20;99.90;;;;;;5104500;27;20035;-89
2023/09/01 03:03:41;;;;;;;0.73;0.73;;;12.30;99.90;;;;;;5105846;27;20043;-89
2023/09/01 03:06:08;;;;;;;0.80;0.80;;;12.30;99.90;;;;;;5106221;27;20051;-89
2023/09/01 03:08:38;;;;;;;0.70;0.70;;;12.30;99.90;;;;;;5110874;27;20546;-88
2023/09/01 03:11:05;;;;;;;0.80;0.80;;;12.10;99.90;;;;;;5107716;27;20043;-90
2023/09/01 03:13:31;;;;;;;0.73;0.73;;;12.10;99.90;;;;;;5104588;27;20057;-90
2023/09/01 03:15:57;;;;;;;0.80;0.80;;;12.10;99.90;;;;;;5109253;27;20054;-91
2023/09/01 03:18:23;;;;;;;0.75;0.75;;;12.20;99.90;;;;;;5108794;27;20051;-90
2023/09/01 03:20:50;;;;;;;0.70;0.70;;;12.10;99.90;;;;;;5106329;27;20063;-89
2023/09/01 03:23:16;;;;;;;0.77;0.77;;;12.20;99.90;;;;;;5112428;27;20052;-89
2023/09/01 03:25:42;;;;;;;0.80;0.80;;;12.10;99.90;;;;;;5103122;27;20050;-88
2023/09/01 03:28:08;;;;;;;0.80;0.80;;;12.20;99.90;;;;;;5108988;27;20403;-89
2023/09/01 03:30:33;;;;;;;0.80;0.80;;;12.20;99.90;;;;;;5102964;27;20038;-89
2023/09/01 03:32:59;;;;;;;0.80;0.80;;;12.10;99.90;;;;;;5105405;27;20038;-89
2023/09/01 03:35:25;;;;;;;0.80;0.80;;;12.10;99.90;;;;;;5104132;27;20144;-89
2023/09/01 03:37:50;;;;;;;0.80;0.80;;;12.10;99.90;;;;;;5107938;27;20483;-89
2023/09/01 03:40:16;;;;;;;0.80;0.80;;;12.10;99.90;;;;;;5106914;27;20035;-88
2023/09/01 03:42:42;;;;;;;0.77;0.77;;;12.00;99.90;;;;;;5105173;27;20082;-89
2023/09/01 03:45:08;;;;;;;0.80;0.80;;;11.90;99.90;;;;;;5107219;27;20464;-88
2023/09/01 03:47:34;;;;;;;0.80;0.80;;;11.70;99.90;;;;;;5107778;27;20050;-87
2023/09/01 03:50:00;;;;;;;0.80;0.80;;;12.00;99.90;;;;;;5106176;27;20039;-87
2023/09/01 03:52:26;;;;;;;0.80;0.80;;;12.10;99.90;;;;;;5105564;27;20039;-87
2023/09/01 03:54:52;;;;;;;0.80;0.80;;;11.90;99.90;;;;;;5101868;27;20108;-87
2023/09/01 03:57:18;;;;;;;0.85;0.85;;;11.90;99.90;;;;;;5103866;27;20771;-87
2023/09/01 03:59:44;;;;;;;0.82;0.82;;;11.70;99.90;;;;;;5124161;27;20472;-88
2023/09/01 04:02:10;;;;;;;0.80;0.80;;;11.80;99.90;;;;;;5108867;27;20050;-86
2023/09/01 04:04:36;;;;;;;0.85;0.85;;;11.60;99.90;;;;;;5109396;27;20046;-88
2023/09/01 04:07:02;;;;;;;0.90;0.90;;;11.70;99.90;;;;;;5105407;27;20042;-87
2023/09/01 04:09:28;;;;;;;0.90;0.90;;;11.70;99.90;;;;;;5101687;27;20051;-86
2023/09/01 04:11:57;;;;;;;0.90;0.90;;;11.50;99.90;;;;;;5097071;27;20062;-86
2023/09/01 04:14:23;;;;;;;0.90;0.90;;;11.40;99.90;;;;;;5100067;27;20055;-87
2023/09/01 04:16:50;;;;;;;0.93;0.93;;;11.20;99.90;;;;;;5127890;27;20054;-88
2023/09/01 04:19:15;;;;;;;0.90;0.90;;;11.30;99.90;;;;;;5106401;27;20046;-89
2023/09/01 04:21:41;;;;;;;0.80;0.80;;;11.60;99.90;;;;;;5106935;27;20034;-86
2023/09/01 04:24:08;;;;;;;0.80;0.80;;;11.70;99.90;;;;;;5122925;27;20054;-86
2023/09/01 04:26:34;;;;;;;0.80;0.80;;;11.70;99.90;;;;;;5107664;27;20119;-88
2023/09/01 04:29:00;;;;;;;0.80;0.80;;;11.80;99.90;;;;;;5105223;27;20488;-87
2023/09/01 04:31:28;;;;;;;0.90;0.90;;;11.90;99.90;;;;;;5127061;27;20047;-86
2023/09/01 04:33:54;;;;;;;0.80;0.80;;;11.90;99.90;;;;;;5121240;27;20042;-88
2023/09/01 04:36:20;;;;;;;0.80;0.80;;;11.70;99.90;;;;;;5113530;27;20138;-89
2023/09/01 04:38:46;;;;;;;0.90;0.90;;;11.70;99.90;;;;;;5112999;27;20113;-87
2023/09/01 04:41:12;;;;;;;0.90;0.90;;;11.80;99.90;;;;;;5109714;27;20043;-88
2023/09/01 04:43:38;;;;;;;0.90;0.90;;;11.70;99.90;;;;;;5131118;27;20049;-88
2023/09/01 04:46:04;;;;;;;0.90;0.90;;;11.80;99.90;;;;;;5126047;27;20111;-91
2023/09/01 04:48:30;;;;;;;0.93;0.93;;;11.70;99.90;;;;;;5109284;27;20487;-91
2023/09/01 04:50:56;;;;;;;0.90;0.90;;;11.80;99.90;;;;;;5111262;27;20046;-90
2023/09/01 04:53:23;;;;;;;0.90;0.90;;;11.80;99.90;;;;;;5111912;27;20046;-89
2023/09/01 04:55:49;;;;;;;0.80;0.80;;;11.80;99.90;;;;;;5110547;27;20039;-91
2023/09/01 04:58:15;;;;;;;0.80;0.80;;;11.90;99.90;;;;;;5105949;27;20043;-90
2023/09/01 05:00:41;;;;;;;0.82;0.82;;;11.90;99.90;;;;;;5108721;27;20034;-89
2023/09/01 05:03:07;;;;;;;0.80;0.80;;;11.80;99.90;;;;;;5118295;27;20039;-89
2023/09/01 05:05:33;;;;;;;0.70;0.70;;;11.90;99.90;;;;;;5121411;27;20039;-90
2023/09/01 05:07:59;;;;;;;0.70;0.70;;;11.90;99.90;;;;;;5124499;27;20046;-88
2023/09/01 05:10:25;;;;;;;0.70;0.70;;;12.00;99.90;;;;;;5126008;27;20035;-88
2023/09/01 05:12:51;;;;;;;0.80;0.80;;;12.00;99.90;;;;;;5106714;27;20503;-90
2023/09/01 05:15:18;;;;;;;0.73;0.73;;;11.80;99.90;;;;;;5108838;27;20043;-89
2023/09/01 05:17:45;;;;;;;0.80;0.80;;;12.10;99.90;;;;;;5110293;27;20038;-88
2023/09/01 05:20:11;;;;;;;0.70;0.70;;;11.90;99.90;;;;;;5123020;27;20088;-87
2023/09/01 05:22:37;;;;;;;0.77;0.77;;;12.00;99.90;;;;;;5105323;27;20084;-87
2023/09/01 05:25:03;;;;;;;0.75;0.75;;;12.10;99.90;;;;;;5123741;27;20074;-87
2023/09/01 05:27:29;;;;;;;0.80;0.80;;;12.20;99.90;;;;;;5122500;27;20039;-89
2023/09/01 05:29:55;;;;;;;0.80;0.80;;;12.30;99.90;;;;;;5121894;27;20038;-87
2023/09/01 05:32:21;;;;;;;0.85;0.85;;;12.20;99.90;;;;;;5099657;27;20039;-88
2023/09/01 05:34:47;;;;;;;0.90;0.90;;;12.20;99.90;;;;;;5107089;27;20047;-89
2023/09/01 05:37:16;;;;;;;0.85;0.85;;;12.10;99.90;;;;;;5125070;27;20042;-89
2023/09/01 05:39:42;;;;;;;0.85;0.85;;;12.40;99.90;;;;;;5109899;27;20041;-90
2023/09/01 05:42:09;;;;;;;0.93;0.93;;;12.20;99.90;;;;;;5106318;27;20074;-89
2023/09/01 05:44:35;;;;;;;1.00;1.00;;;12.20;99.90;;;;;;5111905;27;20138;-89
2023/09/01 05:47:05;;;;;;;0.93;0.93;;;12.40;99.90;;;;;;5104562;27;20047;-88
2023/09/01 05:49:32;;;;;;;1.02;1.02;;;12.40;99.90;;;;;;5141325;27;20050;-88
2023/09/01 05:51:59;;;;;;;0.95;0.95;;;12.40;99.90;;;;;;5102621;27;20133;-87
2023/09/01 05:54:25;;;;;;;1.05;1.05;;;12.60;99.90;;;;;;5100540;27;20074;-88
2023/09/01 05:56:51;;;;;;;1.08;1.08;;;12.70;99.90;;;;;;5107613;27;20092;-89
2023/09/01 05:59:17;;;;;;;1.08;1.08;;;12.60;99.90;;;;;;5124177;27;20495;-87
2023/09/01 06:01:42;;;;;;;1.00;1.00;;;12.80;99.90;;;;;;5120328;27;20042;-89
2023/09/01 06:04:08;;;;;;;1.00;1.00;;;12.80;99.90;;;;;;5107564;27;20094;-87
2023/09/01 06:06:35;;;;;;;0.90;0.90;;;12.70;99.90;;;;;;5137794;27;20050;-88
2023/09/01 06:09:05;;;;;;;0.90;0.90;;;13.00;99.90;;;;;;5109877;27;20035;-89
2023/09/01 06:11:32;;;;;;;0.93;0.93;;;12.90;99.90;;;;;;5107608;27;20059;-90
2023/09/01 06:13:58;;;;;;;0.90;0.90;;;12.90;99.90;;;;;;5107808;27;20054;-87
2023/09/01 06:16:34;;;;;;;0.90;0.90;;;13.10;99.90;;;;;;5107522;27;20038;-95
2023/09/01 06:19:05;;;;;;;0.90;0.90;;;13.20;99.90;;;;;;5117124;27;20707;-92
2023/09/01 06:21:33;;;;;;;0.80;0.80;;;13.20;99.90;;;;;;5106564;27;20526;-87
2023/09/01 06:23:59;;;;;;;0.90;0.90;;;13.10;99.90;;;;;;5120728;27;20047;-88
2023/09/01 06:26:24;;;;;;;0.80;0.80;;;13.50;99.90;;;;;;5108027;27;20579;-88
2023/09/01 06:28:50;;;;;;;0.90;0.90;;;13.50;99.90;;;;;;5107509;27;20042;-88
2023/09/01 06:31:16;;;;;;;0.80;0.80;;;13.60;99.90;;;;;;5122486;27;20043;-86
2023/09/01 06:33:43;;;;;;;0.90;0.90;;;13.60;99.90;;;;;;5110663;27;20042;-86
2023/09/01 06:36:17;;;;;;;0.73;0.73;;;13.50;99.90;;;;;;5119463;27;20071;-87
2023/09/01 06:38:43;;;;;;;0.70;0.70;;;13.80;99.90;;;;;;5100453;27;20046;-87
2023/09/01 06:41:09;;;;;;;0.70;0.70;;;13.70;99.90;;;;;;5125618;27;20050;-87
2023/09/01 06:43:36;;;;;;;0.60;0.60;;;14.10;99.90;;;;;;5106895;27;20086;-89
2023/09/01 06:46:02;;;;;;;0.60;0.60;;;13.90;99.90;;;;;;5108996;27;20046;-89
2023/09/01 06:48:30;;;;;;;0.60;0.60;;;14.10;99.90;;;;;;5112762;27;20074;-88
2023/09/01 06:50:57;;;;;;;0.60;0.60;;;14.00;99.90;;;;;;5104294;27;20405;-88
2023/09/01 06:53:26;;;;;;;0.60;0.60;;;13.90;99.90;;;;;;5117211;27;20043;-85
2023/09/01 06:55:52;;;;;;;0.60;0.60;;;14.50;99.90;;;;;;5103465;27;20075;-88
2023/09/01 06:58:18;;;;;;;0.60;0.60;;;14.20;99.90;;;;;;5099633;27;20083;-89
2023/09/01 07:00:43;;;;;;;0.60;0.60;;;14.50;99.90;;;;;;5121662;27;20110;-87
2023/09/01 07:03:10;;;;;;;0.60;0.60;;;14.50;99.90;;;;;;5105898;27;20073;-88
2023/09/01 07:05:35;;;;;;;0.60;0.60;;;14.70;99.90;;;;;;5106337;27;20047;-87
2023/09/01 07:08:01;;;;;;;0.52;0.52;;;14.80;99.90;;;;;;5104212;27;20034;-88
2023/09/01 07:10:27;;;;;;;0.50;0.50;;;14.70;99.90;;;;;;5121284;27;20079;-88
2023/09/01 07:13:11;;;;;;;0.60;0.60;;;14.70;99.90;;;;;;5100902;27;20491;-87
2023/09/01 07:15:37;;;;;;;0.50;0.50;;;15.10;99.90;;;;;;5117873;27;20035;-88
2023/09/01 07:18:03;;;;;;;0.50;0.50;;;15.20;99.90;;;;;;5121431;27;20068;-87
2023/09/01 07:20:29;;;;;;;0.50;0.50;;;15.30;99.90;;;;;;5106847;27;20041;-87
2023/09/01 07:22:54;;;;;;;0.50;0.50;;;15.50;99.90;;;;;;5120170;27;20042;-86
2023/09/01 07:25:20;;;;;;;0.50;0.50;;;15.60;99.90;;;;;;5104287;27;20048;-89
2023/09/01 07:27:46;;;;;;;0.50;0.50;;;15.40;99.90;;;;;;5104057;27;20129;-86
2023/09/01 07:30:13;;;;;;;0.50;0.50;;;15.60;99.90;;;;;;5119957;27;20773;-86
2023/09/01 07:32:40;;;;;;;0.50;0.50;;;15.60;99.90;;;;;;5109221;27;20051;-89
2023/09/01 07:35:06;;;;;;;0.50;0.50;;;15.90;99.90;;;;;;5109632;27;20064;-88
2023/09/01 07:37:32;;;;;;;0.50;0.50;;;16.00;99.90;;;;;;5123732;27;20043;-89
2023/09/01 07:39:58;;;;;;;0.50;0.50;;;16.00;99.90;;;;;;5104728;27;20050;-88
2023/09/01 07:42:23;;;;;;;0.50;0.50;;;16.20;99.90;;;;;;5123899;27;20045;-87
2023/09/01 07:44:49;;;;;;;0.50;0.50;;;16.20;99.90;;;;;;5125470;27;20066;-88
2023/09/01 07:47:15;;;;;;;0.50;0.50;;;16.40;99.90;;;;;;5107625;27;20058;-88
2023/09/01 07:49:40;;;;;;;0.60;0.60;;;16.40;99.90;;;;;;5141128;27;20069;-86
2023/09/01 07:52:06;;;;;;;0.55;0.55;;;16.50;99.90;;;;;;5120567;27;20099;-87
2023/09/01 07:54:32;;;;;;;0.50;0.50;;;16.40;99.90;;;;;;5100903;27;20598;-89
2023/09/01 07:56:58;;;;;;;0.60;0.60;;;16.50;99.90;;;;;;5105136;27;20040;-88
2023/09/01 07:59:24;;;;;;;0.60;0.60;;;16.60;99.90;;;;;;5104152;27;20039;-86
2023/09/01 08:01:49;;;;;;;0.60;0.60;;;16.60;99.90;;;;;;5114945;27;20106;-87
2023/09/01 08:04:15;;;;;;;0.57;0.57;;;16.50;99.90;;;;;;5102304;27;20054;-92
2023/09/01 08:06:43;;;;;;;0.60;0.60;;;16.40;99.90;;;;;;5124954;27;20051;-88
2023/09/01 08:09:09;;;;;;;0.60;0.60;;;16.40;99.90;;;;;;5102752;27;20049;-87
2023/09/01 08:11:37;;;;;;;0.60;0.60;;;16.20;99.90;;;;;;5107388;27;20039;-87
2023/09/01 08:14:03;;;;;;;0.60;0.60;;;16.20;99.90;;;;;;5122359;27;20042;-87
2023/09/01 08:16:30;;;;;;;0.50;0.50;;;16.50;99.90;;;;;;5121330;27;20072;-87
2023/09/01 08:18:58;;;;;;;0.60;0.60;;;16.60;99.90;;;;;;5117588;27;20131;-87
2023/09/01 08:21:25;;;;;;;0.70;0.70;;;16.80;99.90;;;;;;5123366;27;21248;-88
2023/09/01 08:23:51;;;;;;;0.60;0.60;;;16.80;99.90;;;;;;5105979;27;20046;-88
2023/09/01 08:26:22;;;;;;;0.60;0.60;;;16.80;99.90;;;;;;5107042;27;20053;-88
2023/09/01 08:28:48;;;;;;;0.60;0.60;;;16.60;99.90;;;;;;5106822;27;20045;-87
2023/09/01 08:31:13;;;;;;;0.52;0.52;;;16.80;99.90;;;;;;5106932;27;20039;-88
2023/09/01 08:33:40;;;;;;;0.60;0.60;;;16.90;99.90;;;;;;5104687;27;20052;-88
2023/09/01 08:36:07;;;;;;;0.60;0.60;;;16.90;99.90;;;;;;5108398;27;20615;-92
2023/09/01 08:38:32;;;;;;;0.60;0.60;;;17.00;99.90;;;;;;5113658;27;20035;-89
2023/09/01 08:41:03;;;;;;;0.60;0.60;;;17.00;99.90;;;;;;5102188;27;20046;-90
2023/09/01 08:43:34;;;;;;;0.60;0.60;;;17.10;99.90;;;;;;5103341;27;20481;-88
2023/09/01 08:46:02;;;;;;;0.60;0.60;;;17.20;99.90;;;;;;5100992;27;20055;-88
2023/09/01 08:48:37;;;;;;;0.60;0.60;;;17.30;99.90;;;;;;5127366;27;20038;-88
2023/09/01 08:51:05;;;;;;;0.60;0.60;;;17.20;99.90;;;;;;5106272;27;20054;-86
2023/09/01 08:53:31;;;;;;;0.60;0.60;;;17.40;99.90;;;;;;5120448;27;20047;-88
2023/09/01 08:55:57;;;;;;;0.60;0.60;;;17.50;99.90;;;;;;5105258;27;20077;-87
2023/09/01 08:58:23;;;;;;;0.70;0.70;;;17.40;99.90;;;;;;5107616;27;20455;-91
2023/09/01 09:00:49;;;;;;;0.60;0.60;;;17.40;99.90;;;;;;5108925;27;20046;-89
2023/09/01 09:03:16;;;;;;;0.60;0.60;;;17.50;99.90;;;;;;5108146;27;20078;-89
2023/09/01 09:05:44;;;;;;;0.60;0.60;;;17.30;99.90;;;;;;5105716;27;20046;-89
2023/09/01 09:08:10;;;;;;;0.60;0.60;;;17.50;99.90;;;;;;5110240;27;20042;-87
2023/09/01 09:10:46;;;;;;;0.60;0.60;;;17.50;99.90;;;;;;5125257;27;20042;-87
2023/09/01 09:13:31;;;;;;;0.60;0.60;;;17.50;99.90;;;;;;5120597;27;20384;-88
2023/09/01 09:16:11;;;;;;;0.60;0.60;;;17.60;99.90;;;;;;5108518;27;20052;-88
2023/09/01 09:18:42;;;;;;;0.50;0.50;;;17.50;99.90;;;;;;5106671;27;20039;-88
2023/09/01 09:21:28;;;;;;;0.60;0.60;;;17.60;99.90;;;;;;5118711;27;20047;-86
2023/09/01 09:23:56;;;;;;;0.60;0.60;;;17.70;99.90;;;;;;5121307;27;20767;-85
2023/09/01 09:26:27;;;;;;;0.57;0.57;;;17.80;99.90;;;;;;5107577;27;20440;-87
2023/09/01 09:28:53;;;;;;;0.50;0.50;;;17.90;99.90;;;;;;5122203;27;20062;-86
2023/09/01 09:31:28;;;;;;;0.50;0.50;;;18.00;99.90;;;;;;5100696;27;20115;-87
2023/09/01 09:33:54;;;;;;;0.52;0.52;;;18.00;99.90;;;;;;5127551;27;20062;-88
2023/09/01 09:36:37;;;;;;;0.57;0.57;;;18.10;99.90;;;;;;5109565;27;20043;-90
2023/09/01 09:39:19;;;;;;;0.50;0.50;;;18.10;99.90;;;;;;5101930;27;20150;-87
2023/09/01 09:41:48;;;;;;;0.60;0.60;;;18.30;99.90;;;;;;5128349;27;20043;-88
2023/09/01 09:44:27;;;;;;;0.60;0.60;;;18.30;99.90;;;;;;5127204;27;20034;-87
2023/09/01 09:46:53;;;;;;;0.60;0.60;;;18.10;99.90;;;;;;5105984;27;20055;-88
2023/09/01 09:49:26;;;;;;;0.60;0.60;;;17.80;99.90;;;;;;5117505;27;20617;-87
2023/09/01 09:51:52;;;;;;;0.60;0.60;;;18.30;99.90;;;;;;5105261;27;20047;-87
2023/09/01 09:54:21;;;;;;;0.60;0.60;;;18.30;99.90;;;;;;5108938;27;20055;-88
2023/09/01 09:56:49;;;;;;;0.60;0.60;;;18.40;99.90;;;;;;5107043;27;20050;-90
2023/09/01 09:59:30;;;;;;;0.70;0.70;;;18.20;99.90;;;;;;5104256;27;20055;-88
2023/09/01 10:02:04;;;;;;;0.70;0.70;;;17.90;99.90;;;;;;5099243;27;20042;-87
2023/09/01 10:04:30;;;;;;;0.80;0.80;;;17.70;99.90;;;;;;5106791;27;20042;-87
2023/09/01 10:06:56;;;;;;;0.60;0.60;;;17.70;99.90;;;;;;5103465;27;20038;-86
2023/09/01 10:09:23;;;;;;;0.60;0.60;;;17.70;99.90;;;;;;5118622;27;20054;-87
2023/09/01 10:11:49;;;;;;;0.60;0.60;;;17.90;99.90;;;;;;5123586;27;20046;-86
2023/09/01 10:14:17;;;;;;;0.60;0.60;;;18.00;99.90;;;;;;5105912;27;20055;-87
2023/09/01 10:16:43;;;;;;;0.60;0.60;;;18.00;99.90;;;;;;5105394;27;20066;-86
2023/09/01 10:19:11;;;;;;;0.60;0.60;;;18.00;99.90;;;;;;5121083;27;20111;-88
2023/09/01 10:21:40;;;;;;;0.60;0.60;;;18.10;99.90;;;;;;5124410;27;20401;-90
2023/09/01 10:24:13;;;;;;;0.60;0.60;;;18.00;99.90;;;;;;5123280;27;20068;-86
2023/09/01 10:26:40;;;;;;;0.60;0.60;;;18.10;99.90;;;;;;5106037;27;20702;-87
2023/09/01 10:29:06;;;;;;;0.68;0.68;;;18.10;99.90;;;;;;5121037;27;20050;-87
2023/09/01 10:31:34;;;;;;;0.60;0.60;;;17.80;99.90;;;;;;5107760;27;20042;-88
2023/09/01 10:34:13;;;;;;;0.60;0.60;;;17.80;99.90;;;;;;5115039;27;20062;-86
2023/09/01 10:36:44;;;;;;;0.60;0.60;;;17.90;99.90;;;;;;5099723;27;20043;-86
2023/09/01 10:39:18;;;;;;;0.60;0.60;;;17.80;99.90;;;;;;5106256;27;20043;-90
2023/09/01 10:41:58;;;;;;;0.60;0.60;;;17.90;99.90;;;;;;5103851;27;20067;-88
2023/09/01 10:44:44;;;;;;;0.50;0.50;;;18.00;99.90;;;;;;5106168;27;20649;-87
2023/09/01 10:47:31;;;;;;;0.60;0.60;;;18.00;99.90;;;;;;5118812;27;20035;-87
2023/09/01 10:49:58;;;;;;;0.50;0.50;;;18.10;99.90;;;;;;5105357;27;20042;-88
2023/09/01 10:52:26;;;;;;;0.60;0.60;;;17.90;99.90;;;;;;5120880;27;20046;-86
2023/09/01 10:55:04;;;;;;;0.60;0.60;;;17.90;99.90;;;;;;5109356;27;20034;-86
2023/09/01 10:57:48;;;;;;;0.60;0.60;;;17.90;99.90;;;;;;5120197;27;20096;-87
2023/09/01 11:00:40;;;;;;;;;;;17.90;99.90;;;;;;5104207;27;20138;-89
2023/09/01 11:03:27;;;;;;;0.68;0.68;;;17.90;99.90;;;;;;5121734;27;19923;-89
2023/09/01 11:05:57;;;;;;;0.60;0.60;;;17.80;99.90;;;;;;5107451;27;20506;-87
2023/09/01 11:08:25;;;;;;;0.60;0.60;;;18.00;99.90;;;;;;5107350;27;20070;-88
2023/09/01 11:10:58;;;;;;;0.60;0.60;;;18.20;99.90;;;;;;5111300;27;20054;-88
2023/09/01 11:13:25;;;;;;;0.60;0.60;;;18.20;99.90;;;;;;5101798;27;20106;-88
2023/09/01 11:15:51;;;;;;;0.60;0.60;;;18.30;99.90;;;;;;5106062;27;20469;-89
2023/09/01 11:18:22;;;;;;;0.60;0.60;;;18.00;99.90;;;;;;5103343;27;20887;-87
2023/09/01 11:20:55;;;;;;;0.60;0.60;;;18.00;99.90;;;;;;5102165;27;20036;-87
2023/09/01 11:23:22;;;;;;;0.82;0.82;;;18.00;99.90;;;;;;5104969;27;20074;-89
2023/09/01 11:25:57;;;;;;;0.60;0.60;;;18.00;99.90;;;;;;5105155;27;20043;-86
2023/09/01 11:28:35;;;;;;;0.60;0.60;;;18.10;99.90;;;;;;5118765;27;20500;-87
2023/09/01 11:31:05;;;;;;;0.60;0.60;;;18.10;99.90;;;;;;5103701;27;20072;-85
2023/09/01 11:33:36;;;;;;;0.60;0.60;;;18.30;99.90;;;;;;5122828;27;20053;-89
2023/09/01 11:36:12;;;;;;;0.60;0.60;;;18.20;99.90;;;;;;5103936;27;20034;-87
2023/09/01 11:38:39;;;;;;;0.60;0.60;;;18.40;99.90;;;;;;5108206;27;20110;-88
2023/09/01 11:41:14;;;;;;;0.68;0.68;;;18.40;99.90;;;;;;5107943;27;20042;-87
2023/09/01 11:43:41;;;;;;;0.60;0.60;;;18.50;99.90;;;;;;5118447;27;20097;-86
2023/09/01 11:46:33;;;;;;;0.60;0.60;;;18.50;99.90;;;;;;5109648;27;20043;-89
2023/09/01 11:49:00;;;;;;;0.70;0.70;;;18.60;99.90;;;;;;5106549;27;20043;-88
2023/09/01 11:51:32;;;;;;;0.60;0.60;;;18.70;99.90;;;;;;5107680;27;20047;-89
2023/09/01 11:53:58;;;;;;;0.70;0.70;;;19.00;99.90;;;;;;5108543;27;20099;-86
2023/09/01 11:56:25;;;;;;;0.80;0.80;;;18.90;99.90;;;;;;5105024;27;20546;-87
2023/09/01 11:58:55;;;;;;;0.93;0.93;;;19.10;99.90;;;;;;5097781;27;20396;-88
2023/09/01 12:01:30;;;;;;;0.90;0.90;;;19.00;99.90;;;;;;5102871;27;20129;-90
2023/09/01 12:04:05;;;;;;;1.00;1.00;;;19.00;99.90;;;;;;5121389;27;20106;-87
2023/09/01 12:06:31;;;;;;;1.00;1.00;;;18.90;99.90;;;;;;5101931;27;20490;-88
2023/09/01 12:09:14;;;;;;;0.90;0.90;;;18.90;99.90;;;;;;5100415;27;20138;-87
2023/09/01 12:12:00;;;;;;;0.97;0.97;;;19.20;99.90;;;;;;5126549;27;20528;-89
2023/09/01 12:14:27;;;;;;;0.85;0.85;;;19.10;99.90;;;;;;5101107;27;20051;-90
2023/09/01 12:16:54;;;;;;;0.80;0.80;;;18.80;99.90;;;;;;5099021;27;20054;-88
2023/09/01 12:19:24;;;;;;;0.85;0.85;;;19.20;99.90;;;;;;5106969;27;20066;-87
2023/09/01 12:21:51;;;;;;;0.80;0.80;;;19.30;99.90;;;;;;5106041;27;20050;-86
2023/09/01 12:24:17;;;;;;;0.80;0.80;;;19.40;99.90;;;;;;5125116;27;20066;-88
2023/09/01 12:26:42;;;;;;;0.60;0.60;;;19.30;99.90;;;;;;5125391;27;20035;-85
2023/09/01 12:29:08;;;;;;;0.60;0.60;;;19.30;99.90;;;;;;5123412;27;20248;-88
2023/09/01 12:31:34;;;;;;;0.50;0.50;;;19.40;99.90;;;;;;5104216;27;20042;-90
2023/09/01 12:33:59;;;;;;;0.50;0.50;;;19.30;99.90;;;;;;5107120;27;20059;-88
2023/09/01 12:36:25;;;;;;;0.50;0.50;;;19.20;99.90;;;;;;5107095;27;20050;-88
2023/09/01 12:38:52;;;;;;;0.50;0.50;;;18.80;99.90;;;;;;5108501;27;20046;-87
2023/09/01 12:41:17;;;;;;;0.50;0.50;;;19.00;99.90;;;;;;5104350;27;21917;-89
2023/09/01 12:43:43;;;;;;;0.52;0.52;;;18.90;99.90;;;;;;5104776;27;20050;-88
2023/09/01 12:46:09;;;;;;;0.50;0.50;;;19.20;99.90;;;;;;5105595;27;20488;-88
2023/09/01 12:48:35;;;;;;;0.50;0.50;;;19.10;99.90;;;;;;5108579;27;20041;-88
2023/09/01 12:51:01;;;;;;;0.50;0.50;;;18.90;99.90;;;;;;5100874;27;20046;-89
2023/09/01 12:53:26;;;;;;;0.50;0.50;;;19.10;99.90;;;;;;5107225;27;20078;-87